Time;durP1;ratioP1;P1;durP2;ratioP2;P2;SDS_P1;SDS_P2;PMS_P1;PMS_P2;Temp;Humidity;BMP_temperature;BMP_pressure;BME280_temperature;BME280_humidity;BME280_pressure;Samples;Min_cycle;Max_cycle;Signal;HPM_P1;HPM_P2
2021/12/31 00:02:00;;;;;;;;;;;;;;;11.02;100.00;101146.56;5002174;28;20441;-73
2021/12/31 00:04:25;;;;;;;;;;;;;;;11.02;100.00;101131.66;4995684;28;19920;-73
2021/12/31 00:06:51;;;;;;;;;;;;;;;10.99;100.00;101131.09;5014945;28;19918;-73
2021/12/31 00:09:16;;;;;;;;;;;;;;;11.06;100.00;101134.84;5015424;28;19917;-73
2021/12/31 00:11:42;;;;;;;;;;;;;;;11.05;100.00;101139.25;5015407;28;20283;-73
2021/12/31 00:14:07;;;;;;;;;;;;;;;11.07;100.00;101133.84;5007838;28;19943;-73
2021/12/31 00:16:33;;;;;;;;;;;;;;;11.02;100.00;101138.69;5020207;28;19975;-72
2021/12/31 00:18:58;;;;;;;;;;;;;;;11.06;100.00;101133.03;5019999;28;20008;-73
2021/12/31 00:21:24;;;;;;;;;;;;;;;11.09;100.00;101142.41;5021551;28;19913;-74
2021/12/31 00:23:50;;;;;;;;;;;;;;;11.17;100.00;101139.09;5017151;28;19924;-73
2021/12/31 00:26:15;;;;;;;;;;;;;;;11.17;100.00;101137.31;5004736;28;19917;-72
2021/12/31 00:28:41;;;;;;;;;;;;;;;11.18;100.00;101148.63;5030404;28;19983;-72
2021/12/31 00:31:06;;;;;;;;;;;;;;;11.26;100.00;101148.75;5001143;28;19924;-72
2021/12/31 00:33:32;;;;;;;;;;;;;;;11.23;100.00;101151.69;4994706;28;20344;-73
2021/12/31 00:35:57;;;;;;;;;;;;;;;11.18;100.00;101152.06;5030232;28;20379;-71
2021/12/31 00:38:23;;;;;;;;;;;;;;;11.19;100.00;101150.28;5006012;28;19971;-73
2021/12/31 00:40:49;;;;;;;;;;;;;;;11.24;100.00;101148.06;5022650;28;19944;-72
2021/12/31 00:43:14;;;;;;;;;;;;;;;11.27;100.00;101156.50;5016276;28;20369;-73
2021/12/31 00:45:41;;;;;;;;;;;;;;;11.19;100.00;101156.38;5006426;28;19917;-73
2021/12/31 00:48:07;;;;;;;;;;;;;;;11.08;100.00;101156.53;5028616;28;19927;-71
2021/12/31 00:50:33;;;;;;;;;;;;;;;11.08;100.00;101159.16;4996595;28;20063;-72
2021/12/31 00:52:58;;;;;;;;;;;;;;;11.10;100.00;101158.03;4998363;28;20012;-72
2021/12/31 00:55:24;;;;;;;;;;;;;;;11.19;100.00;101150.28;5027637;28;19921;-74
2021/12/31 00:57:50;;;;;;;;;;;;;;;11.20;100.00;101149.31;5018572;28;19917;-73
2021/12/31 01:00:16;;;;;;;;;;;;;;;11.18;100.00;101154.72;5022247;28;19921;-73
2021/12/31 01:02:43;;;;;;;;;;;;;;;11.12;100.00;101143.94;5005332;28;19923;-74
2021/12/31 01:05:09;;;;;;;;;;;;;;;11.09;100.00;101152.91;5005046;28;19925;-74
2021/12/31 01:07:35;;;;;;;;;;;;;;;11.04;100.00;101153.34;5003978;28;19999;-73
2021/12/31 01:10:01;;;;;;;;;;;;;;;11.04;100.00;101155.16;5041381;28;20287;-73
2021/12/31 01:12:27;;;;;;;;;;;;;;;11.11;100.00;101158.84;5025035;28;19968;-74
2021/12/31 01:14:57;;;;;;;;;;;;;;;11.14;100.00;101166.47;5030072;28;19916;-72
2021/12/31 01:17:40;;;;;;;;;;;;;;;11.09;100.00;101168.66;5023017;28;19917;-73
2021/12/31 01:20:06;;;;;;;;;;;;;;;11.17;100.00;101162.72;5014250;28;19920;-73
2021/12/31 01:22:33;;;;;;;;;;;;;;;11.21;100.00;101158.88;5032568;28;20098;-73
2021/12/31 01:24:59;;;;;;;;;;;;;;;11.11;100.00;101164.09;5022313;28;19921;-72
2021/12/31 01:27:24;;;;;;;;;;;;;;;11.13;100.00;101167.41;5025181;28;19927;-72
2021/12/31 01:29:50;;;;;;;;;;;;;;;11.07;100.00;101160.94;5019822;28;19919;-73
2021/12/31 01:32:15;;;;;;;;;;;;;;;11.14;100.00;101163.00;5002293;28;20081;-73
2021/12/31 01:34:41;;;;;;;;;;;;;;;11.15;100.00;101154.16;5027360;28;19975;-73
2021/12/31 01:37:07;;;;;;;;;;;;;;;11.15;100.00;101168.13;5024104;28;19916;-72
2021/12/31 01:39:34;;;;;;;;;;;;;;;11.07;100.00;101157.47;5013339;28;20040;-72
2021/12/31 01:42:00;;;;;;;;;;;;;;;11.17;100.00;101167.97;5016991;28;19972;-74
2021/12/31 01:44:33;;;;;;;;;;;;;;;11.13;100.00;101161.34;5007423;28;20310;-71
2021/12/31 01:46:59;;;;;;;;;;;;;;;11.08;100.00;101170.47;5010359;28;19933;-72
2021/12/31 01:49:33;;;;;;;;;;;;;;;11.11;100.00;101174.59;4993136;28;20504;-73
2021/12/31 01:51:59;;;;;;;;;;;;;;;11.06;100.00;101171.59;5024055;28;20289;-74
2021/12/31 01:54:24;;;;;;;;;;;;;;;11.11;100.00;101187.72;5047027;28;19917;-74
2021/12/31 01:56:51;;;;;;;;;;;;;;;11.06;100.00;101184.72;5005736;28;19917;-72
2021/12/31 01:59:17;;;;;;;;;;;;;;;11.09;100.00;101185.28;5030136;28;20532;-72
2021/12/31 02:01:44;;;;;;;;;;;;;;;11.03;100.00;101188.44;5020199;28;20015;-72
2021/12/31 02:04:10;;;;;;;;;;;;;;;11.01;100.00;101193.00;5028110;28;19974;-72
2021/12/31 02:06:35;;;;;;;;;;;;;;;10.99;100.00;101194.09;5038964;28;19917;-72
2021/12/31 02:09:03;;;;;;;;;;;;;;;10.99;100.00;101199.34;5024330;28;19944;-74
2021/12/31 02:11:28;;;;;;;;;;;;;;;11.08;100.00;101199.34;5018072;28;19960;-71
2021/12/31 02:13:54;;;;;;;;;;;;;;;11.08;100.00;101198.53;5042156;28;19936;-72
2021/12/31 02:16:20;;;;;;;;;;;;;;;10.97;100.00;101196.88;5030375;28;19924;-73
2021/12/31 02:18:46;;;;;;;;;;;;;;;10.99;100.00;101208.06;5005342;28;19921;-73
2021/12/31 02:21:12;;;;;;;;;;;;;;;11.01;100.00;101219.25;5012750;28;19924;-72
2021/12/31 02:23:43;;;;;;;;;;;;;;;11.03;100.00;101214.69;5046900;28;19962;-73
2021/12/31 02:26:10;;;;;;;;;;;;;;;11.01;100.00;101228.91;5028903;28;19924;-71
2021/12/31 02:28:35;;;;;;;;;;;;;;;10.96;100.00;101221.44;5045404;28;19921;-73
2021/12/31 02:31:03;;;;;;;;;;;;;;;11.03;100.00;101225.19;5009561;28;19924;-73
2021/12/31 02:33:30;;;;;;;;;;;;;;;10.98;100.00;101222.16;5030614;28;19917;-73
2021/12/31 02:35:56;;;;;;;;;;;;;;;10.96;100.00;101220.63;5036212;28;20333;-73
2021/12/31 02:38:21;;;;;;;;;;;;;;;10.90;100.00;101211.50;5035832;28;20539;-72
2021/12/31 02:40:47;;;;;;;;;;;;;;;11.05;100.00;101214.53;5012763;28;19925;-74
2021/12/31 02:43:12;;;;;;;;;;;;;;;11.12;100.00;101214.84;4994136;28;20726;-73
2021/12/31 02:45:40;;;;;;;;;;;;;;;11.08;100.00;101215.09;5041122;28;20003;-73
2021/12/31 02:48:06;;;;;;;;;;;;;;;11.13;100.00;101212.03;5029133;28;19944;-73
2021/12/31 02:50:38;;;;;;;;;;;;;;;11.10;100.00;101209.72;5027873;28;19921;-74
2021/12/31 02:53:05;;;;;;;;;;;;;;;11.06;100.00;101203.91;5037672;28;20318;-72
2021/12/31 02:55:31;;;;;;;;;;;;;;;11.10;100.00;101188.72;5041364;28;19913;-72
2021/12/31 02:57:57;;;;;;;;;;;;;;;11.05;100.00;101194.38;5008883;28;19917;-73
2021/12/31 03:00:23;;;;;;;;;;;;;;;11.06;100.00;101193.41;5010506;28;20720;-73
2021/12/31 03:02:49;;;;;;;;;;;;;;;11.12;100.00;101191.22;5018214;28;19979;-73
2021/12/31 03:05:15;;;;;;;;;;;;;;;11.08;100.00;101193.28;5029539;28;19917;-72
2021/12/31 03:07:43;;;;;;;;;;;;;;;11.18;100.00;101190.66;5008436;28;19920;-73
2021/12/31 03:10:09;;;;;;;;;;;;;;;11.16;100.00;101189.97;5026591;28;20656;-73
2021/12/31 03:12:36;;;;;;;;;;;;;;;11.20;100.00;101189.53;5017436;28;20007;-73
2021/12/31 03:15:02;;;;;;;;;;;;;;;11.16;100.00;101187.34;5001582;28;19924;-72
2021/12/31 03:17:29;;;;;;;;;;;;;;;11.08;100.00;101182.78;5007383;28;19917;-72
2021/12/31 03:20:07;;;;;;;;;;;;;;;11.03;100.00;101182.34;5006873;28;19924;-71
2021/12/31 03:22:33;;;;;;;;;;;;;;;11.11;100.00;101174.59;5026702;28;20020;-74
2021/12/31 03:24:58;;;;;;;;;;;;;;;11.15;100.00;101170.75;5027413;28;20007;-73
2021/12/31 03:27:24;;;;;;;;;;;;;;;11.21;100.00;101178.06;4993971;28;19923;-72
2021/12/31 03:29:49;;;;;;;;;;;;;;;11.20;100.00;101175.56;5018035;28;19913;-73
2021/12/31 03:32:15;;;;;;;;;;;;;;;11.17;100.00;101171.44;4990433;28;19999;-71
2021/12/31 03:34:41;;;;;;;;;;;;;;;11.11;100.00;101174.59;4999736;28;19918;-73
2021/12/31 03:37:06;;;;;;;;;;;;;;;11.10;100.00;101181.66;5005961;28;20252;-72
2021/12/31 03:39:31;;;;;;;;;;;;;;;11.08;100.00;101180.97;5000837;28;19924;-74
2021/12/31 03:41:57;;;;;;;;;;;;;;;11.21;100.00;101172.00;5022442;28;20333;-74
2021/12/31 03:44:22;;;;;;;;;;;;;;;11.22;100.00;101181.50;5011527;28;19920;-73
2021/12/31 03:46:48;;;;;;;;;;;;;;;11.28;100.00;101181.78;4993835;28;20009;-73
2021/12/31 03:49:13;;;;;;;;;;;;;;;11.16;100.00;101187.34;5003430;28;20268;-72
2021/12/31 03:51:39;;;;;;;;;;;;;;;11.25;100.00;101178.63;5024920;28;19935;-73
2021/12/31 03:54:04;;;;;;;;;;;;;;;11.26;100.00;101175.00;5021883;28;19957;-72
2021/12/31 03:56:32;;;;;;;;;;;;;;;11.21;100.00;101179.88;5007330;28;19955;-73
2021/12/31 03:58:59;;;;;;;;;;;;;;;11.21;100.00;101179.88;5020185;28;19920;-73
2021/12/31 04:01:26;;;;;;;;;;;;;;;11.22;100.00;101181.50;5022699;28;19936;-73
2021/12/31 04:03:51;;;;;;;;;;;;;;;11.26;100.00;101170.59;5024958;28;19929;-73
2021/12/31 04:06:17;;;;;;;;;;;;;;;11.17;100.00;101175.84;5037656;28;20664;-73
2021/12/31 04:08:42;;;;;;;;;;;;;;;11.08;100.00;101174.91;5027455;28;20374;-74
2021/12/31 04:11:10;;;;;;;;;;;;;;;11.02;100.00;101176.28;5031135;28;19917;-73
2021/12/31 04:13:35;;;;;;;;;;;;;;;11.08;100.00;101182.78;5012776;28;19917;-71
2021/12/31 04:16:01;;;;;;;;;;;;;;;11.04;100.00;101178.78;4987313;28;19959;-74
2021/12/31 04:18:27;;;;;;;;;;;;;;;11.10;100.00;101178.22;5041478;28;19917;-73
2021/12/31 04:20:55;;;;;;;;;;;;;;;10.99;100.00;101178.34;4994012;28;20000;-74
2021/12/31 04:25:52;;;;;;;;;;;;;;;11.07;100.00;101176.69;5025180;28;19959;-72
2021/12/31 04:28:18;;;;;;;;;;;;;;;10.99;100.00;101173.09;5022680;28;19917;-73
2021/12/31 04:30:44;;;;;;;;;;;;;;;11.12;100.00;101170.22;5016211;28;19921;-73
2021/12/31 04:33:09;;;;;;;;;;;;;;;11.21;100.00;101183.31;5021249;28;19945;-73
2021/12/31 04:35:35;;;;;;;;;;;;;;;11.18;100.00;101180.97;5021282;28;19970;-73
2021/12/31 04:38:01;;;;;;;;;;;;;;;11.19;100.00;101174.75;5042409;28;19921;-72
2021/12/31 04:40:26;;;;;;;;;;;;;;;11.10;100.00;101170.34;4994986;28;19928;-73
2021/12/31 04:42:52;;;;;;;;;;;;;;;11.19;100.00;101174.75;5000050;28;19913;-72
2021/12/31 04:45:17;;;;;;;;;;;;;;;11.14;100.00;101176.97;4998477;28;19939;-72
2021/12/31 04:47:43;;;;;;;;;;;;;;;11.14;100.00;101169.09;5019452;28;19917;-73
2021/12/31 04:50:09;;;;;;;;;;;;;;;11.21;100.00;101183.31;5012936;28;20660;-72
2021/12/31 04:52:35;;;;;;;;;;;;;;;11.21;100.00;101180.69;5030255;28;19913;-73
2021/12/31 04:55:00;;;;;;;;;;;;;;;11.25;100.00;101179.44;4989455;28;19917;-73
2021/12/31 04:57:27;;;;;;;;;;;;;;;11.21;100.00;101172.00;5011041;28;19971;-75
2021/12/31 04:59:52;;;;;;;;;;;;;;;11.20;100.00;101178.19;5015738;28;19921;-73
2021/12/31 05:02:18;;;;;;;;;;;;;;;11.19;100.00;101172.13;5015345;28;19935;-72
2021/12/31 05:04:44;;;;;;;;;;;;;;;11.27;100.00;101174.88;5014238;28;20023;-73
2021/12/31 05:07:09;;;;;;;;;;;;;;;11.21;100.00;101172.81;5000816;28;19913;-75
2021/12/31 05:09:35;;;;;;;;;;;;;;;11.20;100.00;101186.09;5019097;28;19914;-72
2021/12/31 05:12:01;;;;;;;;;;;;;;;11.27;100.00;101174.88;5020626;28;20353;-72
2021/12/31 05:14:27;;;;;;;;;;;;;;;11.24;100.00;101179.56;5022789;28;20012;-72
2021/12/31 05:16:52;;;;;;;;;;;;;;;11.26;100.00;101182.88;4995133;28;19979;-72
2021/12/31 05:19:18;;;;;;;;;;;;;;;11.23;100.00;101181.38;5022600;28;19912;-74
2021/12/31 05:21:43;;;;;;;;;;;;;;;11.14;100.00;101176.16;5030341;28;19917;-74
2021/12/31 05:24:09;;;;;;;;;;;;;;;11.27;100.00;101180.13;5021199;28;20350;-74
2021/12/31 05:26:35;;;;;;;;;;;;;;;11.33;100.00;101178.72;5000938;28;19970;-72
2021/12/31 05:29:02;;;;;;;;;;;;;;;11.20;100.00;101158.00;5014955;28;20690;-73
2021/12/31 05:31:28;;;;;;;;;;;;;;;11.28;100.00;101155.53;5042748;28;19917;-74
2021/12/31 05:33:53;;;;;;;;;;;;;;;11.30;100.00;101164.09;5023456;28;19924;-72
2021/12/31 05:36:19;;;;;;;;;;;;;;;11.29;100.00;101162.44;5026225;28;19913;-72
2021/12/31 05:38:44;;;;;;;;;;;;;;;11.38;100.00;101149.44;5024763;28;19944;-73
2021/12/31 05:41:10;;;;;;;;;;;;;;;11.38;100.00;101158.13;5025864;28;19913;-74
2021/12/31 05:43:36;;;;;;;;;;;;;;;11.24;100.00;101163.81;5030686;28;20024;-74
2021/12/31 05:46:01;;;;;;;;;;;;;;;11.17;100.00;101165.34;5017553;28;19924;-72
2021/12/31 05:48:27;;;;;;;;;;;;;;;11.25;100.00;101160.25;5016243;28;19944;-73
2021/12/31 05:50:52;;;;;;;;;;;;;;;11.22;100.00;101163.94;5005049;28;20016;-73
2021/12/31 05:53:18;;;;;;;;;;;;;;;11.32;100.00;101163.97;5038672;28;19917;-74
2021/12/31 05:55:43;;;;;;;;;;;;;;;11.33;100.00;101172.66;5030621;28;19917;-72
2021/12/31 05:58:09;;;;;;;;;;;;;;;11.32;100.00;101158.72;4980711;28;19913;-73
2021/12/31 06:00:34;;;;;;;;;;;;;;;11.34;100.00;101169.06;5011625;28;19924;-72
2021/12/31 06:03:00;;;;;;;;;;;;;;;11.37;100.00;101166.16;5026447;28;20390;-73
2021/12/31 06:05:27;;;;;;;;;;;;;;;11.32;100.00;101166.59;5020302;28;20386;-73
2021/12/31 06:07:55;;;;;;;;;;;;;;;11.32;100.00;101171.84;5009458;28;20306;-72
2021/12/31 06:10:22;;;;;;;;;;;;;;;11.32;100.00;101163.97;5000217;28;19917;-73
2021/12/31 06:12:48;;;;;;;;;;;;;;;11.26;100.00;101162.72;5031702;28;19971;-73
2021/12/31 06:15:16;;;;;;;;;;;;;;;11.26;100.00;101164.50;5015445;28;19913;-74
2021/12/31 06:17:42;;;;;;;;;;;;;;;11.33;100.00;101160.34;5005361;28;19924;-72
2021/12/31 06:20:09;;;;;;;;;;;;;;;11.20;100.00;101150.13;5023962;28;20623;-74
2021/12/31 06:22:35;;;;;;;;;;;;;;;11.23;100.00;101155.13;5012204;28;20628;-74
2021/12/31 06:25:00;;;;;;;;;;;;;;;11.29;100.00;101140.59;5026140;28;19956;-75
2021/12/31 06:27:26;;;;;;;;;;;;;;;11.22;100.00;101136.88;5007919;28;19921;-74
2021/12/31 06:29:51;;;;;;;;;;;;;;;11.27;100.00;101132.84;5007910;28;19913;-73
2021/12/31 06:32:17;;;;;;;;;;;;;;;11.23;100.00;101134.13;5021244;28;20367;-73
2021/12/31 06:34:42;;;;;;;;;;;;;;;11.23;100.00;101131.50;5003286;28;20389;-73
2021/12/31 06:37:08;;;;;;;;;;;;;;;11.26;100.00;101119.88;5020555;28;19974;-72
2021/12/31 06:39:35;;;;;;;;;;;;;;;11.14;100.00;101131.50;5025111;28;19920;-73
2021/12/31 06:42:03;;;;;;;;;;;;;;;11.20;100.00;101131.75;5024507;28;19917;-75
2021/12/31 06:44:32;;;;;;;;;;;;;;;11.21;100.00;101132.59;5002576;28;19913;-74
2021/12/31 06:46:57;;;;;;;;;;;;;;;11.23;100.00;101128.88;5000152;28;20017;-72
2021/12/31 06:49:23;;;;;;;;;;;;;;;11.20;100.00;101118.63;5004208;28;19999;-73
2021/12/31 06:51:48;;;;;;;;;;;;;;;11.09;100.00;101117.00;5015259;28;19920;-72
2021/12/31 06:54:14;;;;;;;;;;;;;;;11.19;100.00;101116.13;5025188;28;19924;-72
2021/12/31 06:56:40;;;;;;;;;;;;;;;11.19;100.00;101111.75;4994300;28;19917;-72
2021/12/31 06:59:05;;;;;;;;;;;;;;;11.14;100.00;101113.13;5009492;28;20449;-72
2021/12/31 07:01:31;;;;;;;;;;;;;;;11.18;100.00;101112.69;5022796;28;19917;-73
2021/12/31 07:03:56;;;;;;;;;;;;;;;11.11;100.00;101116.84;5018677;28;19921;-73
2021/12/31 07:06:21;;;;;;;;;;;;;;;11.18;100.00;101122.38;5013049;28;19917;-74
2021/12/31 07:08:47;;;;;;;;;;;;;;;11.19;100.00;101122.25;5016523;28;19967;-73
2021/12/31 07:11:13;;;;;;;;;;;;;;;11.21;100.00;101120.31;5027043;28;20039;-73
2021/12/31 07:13:38;;;;;;;;;;;;;;;11.26;100.00;101131.22;5021869;28;20382;-72
2021/12/31 07:16:04;;;;;;;;;;;;;;;11.32;100.00;101129.81;5012315;28;19917;-72
2021/12/31 07:18:29;;;;;;;;;;;;;;;11.25;100.00;101128.72;5027703;28;19921;-70
2021/12/31 07:20:55;;;;;;;;;;;;;;;11.30;100.00;101129.97;5028509;28;19913;-72
2021/12/31 07:23:21;;;;;;;;;;;;;;;11.34;100.00;101132.28;5022005;28;20453;-73
2021/12/31 07:25:47;;;;;;;;;;;;;;;11.30;100.00;101123.84;5001962;28;19921;-73
2021/12/31 07:28:13;;;;;;;;;;;;;;;11.37;100.00;101116.25;5021560;28;19921;-72
2021/12/31 07:30:39;;;;;;;;;;;;;;;11.44;100.00;101112.91;5028388;28;20298;-73
2021/12/31 07:33:05;;;;;;;;;;;;;;;11.50;100.00;101116.75;5028756;28;19916;-74
2021/12/31 07:35:34;;;;;;;;;;;;;;;11.42;100.00;101119.28;4992934;28;19948;-72
2021/12/31 07:38:00;;;;;;;;;;;;;;;11.37;100.00;101116.25;5011511;28;20637;-72
2021/12/31 07:40:39;;;;;;;;;;;;;;;11.55;100.00;101118.97;4993901;28;19940;-72
2021/12/31 07:43:06;;;;;;;;;;;;;;;11.60;100.00;101112.31;5006211;28;20377;-72
2021/12/31 07:45:32;;;;;;;;;;;;;;;11.53;100.00;101115.63;5025808;28;20004;-73
2021/12/31 07:47:58;;;;;;;;;;;;;;;11.49;100.00;101120.38;5017158;28;19944;-73
2021/12/31 07:50:24;;;;;;;;;;;;;;;11.52;100.00;101127.13;4996058;28;19917;-73
2021/12/31 07:52:49;;;;;;;;;;;;;;;11.50;100.00;101117.59;5038009;28;19966;-73
2021/12/31 07:55:15;;;;;;;;;;;;;;;11.57;100.00;101122.28;5045141;28;19917;-72
2021/12/31 07:57:40;;;;;;;;;;;;;;;11.56;100.00;101118.00;4996978;28;19916;-73
2021/12/31 08:00:06;;;;;;;;;;;;;;;11.53;100.00;101132.25;5030730;28;20331;-73
2021/12/31 08:02:37;;;;;;;;;;;;;;;11.55;100.00;101127.69;5041940;28;20015;-72
2021/12/31 08:05:02;;;;;;;;;;;;;;;11.53;100.00;101131.41;5007172;28;19996;-72
2021/12/31 08:07:28;;;;;;;;;;;;;;;11.58;100.00;101130.00;5029836;28;19917;-72
2021/12/31 08:09:54;;;;;;;;;;;;;;;11.64;100.00;101124.19;5034914;28;19924;-73
2021/12/31 08:12:19;;;;;;;;;;;;;;;11.62;100.00;101130.53;5015706;28;20641;-74
2021/12/31 08:14:44;;;;;;;;;;;;;;;11.62;100.00;101128.75;5013737;28;20286;-74
2021/12/31 08:17:10;;;;;;;;;;;;;;;11.59;100.00;101131.66;5016810;28;20363;-74
2021/12/31 08:19:36;;;;;;;;;;;;;;;11.56;100.00;101126.69;5014369;28;19923;-73
2021/12/31 08:22:01;;;;;;;;;;;;;;;11.67;100.00;101129.13;5008210;28;19913;-73
2021/12/31 08:24:27;;;;;;;;;;;;;;;11.63;100.00;101127.78;5016500;28;19963;-73
2021/12/31 08:26:52;;;;;;;;;;;;;;;11.66;100.00;101132.75;5014872;28;19917;-73
2021/12/31 08:29:21;;;;;;;;;;;;;;;11.70;100.00;101135.94;4996111;28;19924;-72
2021/12/31 08:31:46;;;;;;;;;;;;;;;11.77;100.00;101133.53;5010107;28;19964;-71
2021/12/31 08:34:12;;;;;;;;;;;;;;;11.75;100.00;101135.47;5020233;28;19917;-74
2021/12/31 08:36:38;;;;;;;;;;;;;;;11.68;100.00;101130.00;4996448;28;20016;-73
2021/12/31 08:39:05;;;;;;;;;;;;;;;11.83;100.00;101123.28;5007165;28;19948;-72
2021/12/31 08:41:31;;;;;;;;;;;;;;;11.87;100.00;101119.38;5004782;28;19917;-72
2021/12/31 08:43:56;;;;;;;;;;;;;;;11.86;100.00;101114.25;4984628;28;19929;-73
2021/12/31 08:46:22;;;;;;;;;;;;;;;11.79;100.00;101119.28;5012840;28;19963;-73
2021/12/31 08:48:48;;;;;;;;;;;;;;;11.97;100.00;101108.84;5017333;28;19924;-74
2021/12/31 08:51:13;;;;;;;;;;;;;;;12.01;100.00;101112.84;5026257;28;19920;-73
2021/12/31 08:53:39;;;;;;;;;;;;;;;12.07;100.00;101107.00;5010142;28;19913;-74
2021/12/31 08:56:04;;;;;;;;;;;;;;;12.07;100.00;101116.69;5020778;28;19920;-73
2021/12/31 08:58:30;;;;;;;;;;;;;;;12.12;100.00;101117.06;5021370;28;19912;-73
2021/12/31 09:00:55;;;;;;;;;;;;;;;12.10;100.00;101119.03;5017720;28;19921;-73
2021/12/31 09:03:21;;;;;;;;;;;;;;;12.08;100.00;101115.72;5024618;28;19971;-72
2021/12/31 09:05:47;;;;;;;;;;;;;;;12.02;100.00;101121.56;5017431;28;19925;-71
2021/12/31 09:08:12;;;;;;;;;;;;;;;12.05;100.00;101118.63;5012484;28;19991;-72
2021/12/31 09:10:38;;;;;;;;;;;;;;;12.15;100.00;101126.44;5021501;28;19924;-72
2021/12/31 09:13:04;;;;;;;;;;;;;;;12.08;100.00;101129.69;5015105;28;19915;-72
2021/12/31 09:15:29;;;;;;;;;;;;;;;12.12;100.00;101132.84;5022042;28;19919;-73
2021/12/31 09:17:57;;;;;;;;;;;;;;;12.12;100.00;101129.41;5022837;28;19919;-73
2021/12/31 09:20:23;;;;;;;;;;;;;;;12.12;100.00;101127.59;4987309;28;19917;-74
2021/12/31 09:22:48;;;;;;;;;;;;;;;12.07;100.00;101135.06;5030133;28;20020;-72
2021/12/31 09:25:15;;;;;;;;;;;;;;;12.11;100.00;101125.09;4991570;28;20421;-74
2021/12/31 09:27:41;;;;;;;;;;;;;;;12.21;100.00;101139.84;5028024;28;19917;-73
2021/12/31 09:30:07;;;;;;;;;;;;;;;12.13;100.00;101128.41;4983048;28;20412;-72
2021/12/31 09:32:32;;;;;;;;;;;;;;;12.18;100.00;101131.44;5003013;28;20385;-71
2021/12/31 09:34:58;;;;;;;;;;;;;;;12.21;100.00;101137.22;5006027;28;19913;-73
2021/12/31 09:37:24;;;;;;;;;;;;;;;12.12;100.00;101138.09;5006588;28;19923;-73
2021/12/31 09:39:49;;;;;;;;;;;;;;;12.09;100.00;101135.75;5021898;28;20031;-75
2021/12/31 09:42:15;;;;;;;;;;;;;;;12.02;100.00;101140.78;5018109;28;19958;-73
2021/12/31 09:44:40;;;;;;;;;;;;;;;12.07;100.00;101146.44;5015498;28;19913;-74
2021/12/31 09:47:10;;;;;;;;;;;;;;;12.12;100.00;101142.53;5019826;28;19970;-72
2021/12/31 09:49:37;;;;;;;;;;;;;;;12.03;100.00;101144.25;5007157;28;20374;-72
2021/12/31 09:52:03;;;;;;;;;;;;;;;12.07;100.00;101142.97;5031393;28;19916;-70
2021/12/31 09:54:28;;;;;;;;;;;;;;;11.99;100.00;101150.78;5028913;28;19988;-74
2021/12/31 09:56:55;;;;;;;;;;;;;;;12.07;100.00;101149.06;5019096;28;20344;-73
2021/12/31 09:59:23;;;;;;;;;;;;;;;12.12;100.00;101148.63;5017593;28;19917;-74
2021/12/31 10:01:50;;;;;;;;;;;;;;;12.06;100.00;101144.78;5004894;28;19913;-74
2021/12/31 10:04:16;;;;;;;;;;;;;;;12.09;100.00;101143.66;4994979;28;19913;-71
2021/12/31 10:07:00;;;;;;;;;;;;;;;12.05;100.00;101145.78;5020994;28;19917;-74
2021/12/31 10:09:26;;;;;;;;;;;;;;;12.08;100.00;101148.09;5014898;28;20579;-72
2021/12/31 10:11:56;;;;;;;;;;;;;;;12.20;100.00;101148.69;5026661;28;19917;-74
2021/12/31 10:14:32;;;;;;;;;;;;;;;12.17;100.00;101150.81;5014404;28;19921;-72
2021/12/31 10:16:58;;;;;;;;;;;;;;;12.16;100.00;101142.09;5044792;28;19916;-73
2021/12/31 10:19:23;;;;;;;;;;;;;;;12.17;100.00;101153.47;5011028;28;19917;-73
2021/12/31 10:21:54;;;;;;;;;;;;;;;12.08;100.00;101148.09;5026415;28;19913;-73
2021/12/31 10:24:39;;;;;;;;;;;;;;;12.01;100.00;101154.91;5010452;28;19913;-74
2021/12/31 10:27:14;;;;;;;;;;;;;;;11.99;100.00;101156.03;5031983;28;19912;-73
2021/12/31 10:29:52;;;;;;;;;;;;;;;12.00;100.00;101150.63;5010763;28;19917;-71
2021/12/31 10:32:18;;;;;;;;;;;;;;;11.96;100.00;101146.63;5027675;28;20290;-73
2021/12/31 10:34:44;;;;;;;;;;;;;;;11.93;100.00;101157.44;5023865;28;19921;-74
2021/12/31 10:37:14;;;;;;;;;;;;;;;11.93;100.00;101148.72;5044536;28;19941;-71
2021/12/31 10:39:40;;;;;;;;;;;;;;;11.94;100.00;101145.13;5028161;28;19972;-72
2021/12/31 10:42:07;;;;;;;;;;;;;;;11.94;100.00;101135.44;5032785;28;19921;-72
2021/12/31 10:44:46;;;;;;;;;;;;;;;12.03;100.00;101138.97;5021305;28;19917;-72
2021/12/31 10:47:16;;;;;;;;;;;;;;;12.16;100.00;101138.63;5022197;28;19917;-72
2021/12/31 10:50:00;;;;;;;;;;;;;;;12.23;100.00;101147.59;5036415;28;19924;-73
2021/12/31 10:52:29;;;;;;;;;;;;;;;12.23;100.00;101140.53;5017900;28;19913;-75
2021/12/31 10:55:03;;;;;;;;;;;;;;;12.31;100.00;101141.59;5022625;28;20341;-72
2021/12/31 10:57:36;;;;;;;;;;;;;;;12.31;100.00;101152.13;5001245;28;19921;-71
2021/12/31 11:00:03;;;;;;;;;;;;;;;12.29;100.00;101154.06;4992246;28;20011;-72
2021/12/31 11:02:29;;;;;;;;;;;;;;;12.18;100.00;101148.03;5012307;28;20772;-74
2021/12/31 11:04:54;;;;;;;;;;;;;;;12.24;100.00;101151.88;5023603;28;19952;-73
2021/12/31 11:07:20;;;;;;;;;;;;;;;12.17;100.00;101145.56;5016072;28;19917;-73
2021/12/31 11:09:46;;;;;;;;;;;;;;;12.18;100.00;101152.47;5004321;28;20011;-74
2021/12/31 11:12:14;;;;;;;;;;;;;;;12.17;100.00;101150.81;5022963;28;19963;-74
2021/12/31 11:14:40;;;;;;;;;;;;;;;12.11;100.00;101147.00;5023646;28;19927;-72
2021/12/31 11:17:05;;;;;;;;;;;;;;;12.06;100.00;101146.59;5011838;28;19953;-75
2021/12/31 11:19:32;;;;;;;;;;;;;;;12.06;100.00;101133.44;5024686;28;19948;-74
2021/12/31 11:21:57;;;;;;;;;;;;;;;12.01;100.00;101127.78;5028185;28;19975;-74
2021/12/31 11:24:36;;;;;;;;;;;;;;;12.14;100.00;101136.16;5024994;28;19917;-73
2021/12/31 11:27:20;;;;;;;;;;;;;;;12.14;100.00;101143.22;5004069;28;19913;-73
2021/12/31 11:29:46;;;;;;;;;;;;;;;12.10;100.00;101129.53;5016475;28;19921;-72
2021/12/31 11:32:11;;;;;;;;;;;;;;;12.12;100.00;101130.22;5024675;28;19984;-73
2021/12/31 11:34:37;;;;;;;;;;;;;;;12.03;100.00;101121.41;5018507;28;19917;-70
2021/12/31 11:37:03;;;;;;;;;;;;;;;12.02;100.00;101119.75;5020623;28;19921;-71
2021/12/31 11:39:36;;;;;;;;;;;;;;;12.05;100.00;101118.63;5022190;28;19960;-74
2021/12/31 11:42:03;;;;;;;;;;;;;;;12.10;100.00;101110.31;5011712;28;19916;-72
2021/12/31 11:44:29;;;;;;;;;;;;;;;12.01;100.00;101115.47;5013889;28;20381;-74
2021/12/31 11:47:07;;;;;;;;;;;;;;;11.93;100.00;101115.38;5008355;28;19924;-72
2021/12/31 11:49:34;;;;;;;;;;;;;;;12.08;100.00;101113.09;5007150;28;21358;-74
2021/12/31 11:51:59;;;;;;;;;;;;;;;12.13;100.00;101107.38;5031076;28;19923;-72
2021/12/31 11:54:26;;;;;;;;;;;;;;;12.14;100.00;101112.50;5017961;28;20008;-73
2021/12/31 11:57:01;;;;;;;;;;;;;;;12.19;100.00;101104.16;4997185;28;20128;-72
2021/12/31 11:59:31;;;;;;;;;;;;;;;12.16;100.00;101107.91;5008623;28;19917;-75
2021/12/31 12:02:15;;;;;;;;;;;;;;;12.12;100.00;101105.72;5023919;28;19975;-73
2021/12/31 12:04:53;;;;;;;;;;;;;;;12.04;100.00;101111.72;5028625;28;19955;-73
2021/12/31 12:07:34;;;;;;;;;;;;;;;12.03;100.00;101110.06;5027341;28;19939;-73
2021/12/31 12:10:00;;;;;;;;;;;;;;;11.96;100.00;101114.25;5013303;28;20321;-74
2021/12/31 12:12:31;;;;;;;;;;;;;;;11.95;100.00;101110.78;5021847;28;19917;-73
2021/12/31 12:14:58;;;;;;;;;;;;;;;11.88;100.00;101110.53;5022535;28;19921;-73
2021/12/31 12:17:29;;;;;;;;;;;;;;;11.85;100.00;101110.00;5033734;28;19917;-72
2021/12/31 12:20:01;;;;;;;;;;;;;;;11.88;100.00;101101.81;5026120;28;20398;-71
2021/12/31 12:22:26;;;;;;;;;;;;;;;11.87;100.00;101102.78;5005538;28;19996;-73
2021/12/31 12:24:52;;;;;;;;;;;;;;;11.85;100.00;101092.41;5023697;28;20010;-72
2021/12/31 12:27:22;;;;;;;;;;;;;;;11.83;100.00;101099.63;4990961;28;20040;-74
2021/12/31 12:29:48;;;;;;;;;;;;;;;11.82;100.00;101105.84;4985594;28;20380;-73